Time;durP1;ratioP1;P1;durP2;ratioP2;P2;SDS_P1;SDS_P2;PMS_P1;PMS_P2;Temp;Humidity;BMP_temperature;BMP_pressure;BME280_temperature;BME280_humidity;BME280_pressure;Samples;Min_cycle;Max_cycle;Signal;HPM_P1;HPM_P2
2023/07/16 00:00:31;;;;;;;19.05;10.73;;;;;;;16.40;100.00;100145.72;4941921;29;20035;-75
2023/07/16 00:02:56;;;;;;;21.70;10.50;;;;;;;16.39;100.00;100148.88;4928517;28;20039;-75
2023/07/16 00:05:22;;;;;;;20.77;10.82;;;;;;;16.37;100.00;100148.41;4941821;29;20066;-75
2023/07/16 00:07:47;;;;;;;20.23;10.20;;;;;;;16.35;100.00;100156.31;4928586;28;20035;-75
2023/07/16 00:10:13;;;;;;;23.08;11.23;;;;;;;16.34;100.00;100147.09;4961139;28;20090;-75
2023/07/16 00:12:38;;;;;;;22.23;11.20;;;;;;;16.31;100.00;100145.78;4944660;28;20031;-75
2023/07/16 00:15:06;;;;;;;20.55;10.32;;;;;;;16.29;100.00;100152.91;4935099;28;20034;-76
2023/07/16 00:17:32;;;;;;;24.50;10.80;;;;;;;16.28;100.00;100152.09;4942921;28;20099;-75
2023/07/16 00:19:57;;;;;;;20.95;10.07;;;;;;;16.23;100.00;100154.28;4926347;29;20403;-75
2023/07/16 00:22:23;;;;;;;16.77;9.60;;;;;;;16.23;100.00;100152.28;4938335;28;20054;-75
2023/07/16 00:24:48;;;;;;;21.48;10.27;;;;;;;16.20;100.00;100149.34;4942040;29;20035;-76
2023/07/16 00:27:13;;;;;;;22.95;9.77;;;;;;;16.19;100.00;100151.34;4922417;28;20062;-75
2023/07/16 00:29:39;;;;;;;21.63;10.55;;;;;;;16.12;100.00;100153.84;4926065;29;20039;-75
2023/07/16 00:32:05;;;;;;;18.63;9.10;;;;;;;16.12;100.00;100148.25;4941454;28;20035;-76
2023/07/16 00:34:30;;;;;;;20.08;10.07;;;;;;;16.10;100.00;100147.75;4945221;28;20042;-75
2023/07/16 00:37:01;;;;;;;21.30;9.35;;;;;;;16.06;100.00;100150.44;4960859;28;20030;-76
2023/07/16 00:39:29;;;;;;;23.58;9.88;;;;;;;16.08;100.00;100152.91;4935774;29;20365;-76
2023/07/16 00:41:55;;;;;;;24.55;10.30;;;;;;;16.04;100.00;100149.94;4910305;29;20034;-76
2023/07/16 00:44:21;;;;;;;22.15;9.75;;;;;;;16.02;100.00;100157.88;4935966;29;20035;-75
2023/07/16 00:46:47;;;;;;;21.38;9.73;;;;;;;15.99;100.00;100149.31;4913757;28;20027;-76
2023/07/16 00:49:12;;;;;;;18.40;9.45;;;;;;;15.94;100.00;100147.56;4953351;29;20035;-75
2023/07/16 00:51:38;;;;;;;20.17;8.65;;;;;;;15.93;100.00;100150.69;4923824;28;20067;-75
2023/07/16 00:54:03;;;;;;;19.38;8.63;;;;;;;15.94;100.00;100147.56;4935195;29;20031;-75
2023/07/16 00:56:29;;;;;;;24.58;9.75;;;;;;;15.90;100.00;100149.38;4952271;28;20030;-75
2023/07/16 00:58:54;;;;;;;20.13;9.77;;;;;;;15.92;100.00;100146.25;4934663;29;20039;-75
2023/07/16 01:01:20;;;;;;;20.25;8.88;;;;;;;15.90;100.00;100148.56;4947467;28;20039;-75
2023/07/16 01:03:45;;;;;;;23.70;9.35;;;;;;;15.85;100.00;100161.59;4956307;29;20043;-75
2023/07/16 01:06:32;;;;;;;23.85;9.35;;;;;;;15.82;100.00;100153.03;4926005;28;20042;-75
2023/07/16 01:09:00;;;;;;;22.08;9.55;;;;;;;15.80;100.00;100153.41;4931790;29;20031;-75
2023/07/16 01:11:26;;;;;;;20.00;8.93;;;;;;;15.79;100.00;100153.72;4973360;28;20038;-75
2023/07/16 01:13:52;;;;;;;21.20;9.32;;;;;;;15.80;100.00;100159.00;4936933;29;20082;-75
2023/07/16 01:16:21;;;;;;;17.67;8.75;;;;;;;15.75;100.00;100150.78;4932375;28;20027;-75
2023/07/16 01:18:47;;;;;;;24.02;8.77;;;;;;;15.74;100.00;100154.75;4952185;29;20038;-75
2023/07/16 01:21:12;;;;;;;22.08;9.60;;;;;;;15.72;100.00;100173.84;4913516;29;20035;-75
2023/07/16 01:23:38;;;;;;;24.90;8.93;;;;;;;15.72;100.00;100170.25;4922590;29;20039;-75
2023/07/16 01:26:06;;;;;;;23.30;9.77;;;;;;;15.71;100.00;100163.81;4957119;29;20062;-76
2023/07/16 01:28:57;;;;;;;21.58;9.30;;;;;;;15.70;100.00;100166.94;4944725;28;20034;-75
2023/07/16 01:31:22;;;;;;;18.08;8.70;;;;;;;15.69;100.00;100168.13;4962660;28;20357;-75
2023/07/16 01:33:49;;;;;;;21.30;9.32;;;;;;;15.64;100.00;100169.91;4948167;28;20069;-76
2023/07/16 01:36:14;;;;;;;30.02;10.57;;;;;;;15.65;100.00;100167.91;4953815;29;20435;-75
2023/07/16 01:38:40;;;;;;;19.55;8.63;;;;;;;15.62;100.00;100163.00;4912991;29;20035;-75
2023/07/16 01:41:05;;;;;;;25.20;9.40;;;;;;;15.59;100.00;100163.66;4914079;29;20388;-75
2023/07/16 01:43:31;;;;;;;21.45;8.90;;;;;;;15.56;100.00;100170.75;4957212;29;20034;-75
2023/07/16 01:45:56;;;;;;;19.15;9.07;;;;;;;15.53;100.00;100167.81;4919484;29;20027;-75
2023/07/16 01:48:33;;;;;;;24.90;9.38;;;;;;;15.54;100.00;100161.06;4950270;28;20108;-75
2023/07/16 01:50:58;;;;;;;21.83;9.45;;;;;;;15.58;100.00;100167.63;4922232;29;20027;-76
2023/07/16 01:53:24;;;;;;;22.33;9.13;;;;;;;15.52;100.00;100169.00;4928876;28;20037;-76
2023/07/16 01:55:49;;;;;;;22.05;9.30;;;;;;;15.50;100.00;100168.50;4962942;28;20491;-76
2023/07/16 01:58:15;;;;;;;23.77;9.27;;;;;;;15.47;100.00;100160.78;4963000;28;20039;-75
2023/07/16 02:00:41;;;;;;;21.60;9.20;;;;;;;15.48;100.00;100162.41;4944474;29;20098;-76
2023/07/16 02:03:06;;;;;;;21.15;8.85;;;;;;;15.47;100.00;100160.78;4928511;29;20039;-75
2023/07/16 02:05:32;;;;;;;23.05;9.77;;;;;;;15.50;100.00;100162.91;4928232;29;20058;-75
2023/07/16 02:07:57;;;;;;;23.20;8.68;;;;;;;15.47;100.00;100147.59;4928465;29;20125;-75
2023/07/16 02:10:23;;;;;;;24.13;8.95;;;;;;;15.45;100.00;100152.69;4934608;29;20035;-75
2023/07/16 02:12:48;;;;;;;19.42;8.57;;;;;;;15.44;100.00;100150.25;4940469;29;20183;-75
2023/07/16 02:15:14;;;;;;;22.77;8.75;;;;;;;15.45;100.00;100149.09;4933892;28;20439;-76
2023/07/16 02:17:39;;;;;;;22.83;9.30;;;;;;;15.41;100.00;100146.97;4943796;29;20047;-76
2023/07/16 02:20:06;;;;;;;23.42;8.80;;;;;;;15.39;100.00;100154.06;4944062;29;20028;-76
2023/07/16 02:22:31;;;;;;;19.50;8.63;;;;;;;15.38;100.00;100152.41;4912528;29;20407;-76
2023/07/16 02:24:57;;;;;;;20.67;8.80;;;;;;;15.40;100.00;100153.69;4928122;29;20038;-75
2023/07/16 02:27:22;;;;;;;20.65;9.13;;;;;;;15.31;100.00;100152.91;4944126;28;20042;-76
2023/07/16 02:29:48;;;;;;;22.58;9.07;;;;;;;15.34;100.00;100152.25;4953046;29;20436;-76
2023/07/16 02:32:13;;;;;;;21.77;8.88;;;;;;;15.31;100.00;100158.50;4947179;29;20035;-75
2023/07/16 02:34:38;;;;;;;26.38;9.38;;;;;;;15.27;100.00;100156.75;4912088;29;20050;-76
2023/07/16 02:37:04;;;;;;;18.23;8.65;;;;;;;15.29;100.00;100163.63;4927794;29;20392;-75
2023/07/16 02:39:29;;;;;;;22.55;9.38;;;;;;;15.26;100.00;100163.47;4935095;29;20039;-75
2023/07/16 02:41:55;;;;;;;23.58;9.13;;;;;;;15.25;100.00;100164.63;4926886;29;20027;-75
2023/07/16 02:44:20;;;;;;;21.88;8.68;;;;;;;15.20;100.00;100157.22;4927832;29;20443;-75
2023/07/16 02:46:46;;;;;;;20.70;8.88;;;;;;;15.17;100.00;100161.53;4943394;28;20038;-75
2023/07/16 02:49:11;;;;;;;23.17;9.35;;;;;;;15.17;100.00;100163.50;4970198;28;20061;-76
2023/07/16 02:51:37;;;;;;;23.75;9.35;;;;;;;15.11;100.00;100159.25;4918066;28;20035;-75
2023/07/16 02:54:02;;;;;;;25.17;9.05;;;;;;;15.10;100.00;100157.59;4916957;29;20027;-75
2023/07/16 02:56:27;;;;;;;19.85;9.25;;;;;;;15.10;100.00;100157.59;4938206;28;20031;-76
2023/07/16 02:58:53;;;;;;;24.35;9.95;;;;;;;15.04;100.00;100162.53;4943280;29;20090;-75
2023/07/16 03:01:18;;;;;;;21.42;9.63;;;;;;;15.02;100.00;100159.28;4929625;28;20506;-75
2023/07/16 03:03:44;;;;;;;23.42;9.05;;;;;;;15.06;100.00;100162.22;4937871;29;20023;-75
2023/07/16 03:06:09;;;;;;;27.77;9.57;;;;;;;15.00;100.00;100158.78;4924787;28;20051;-75
2023/07/16 03:08:35;;;;;;;30.98;10.30;;;;;;;14.97;100.00;100165.84;4927038;29;20031;-75
2023/07/16 03:11:00;;;;;;;23.60;9.18;;;;;;;14.97;100.00;100157.47;4930900;28;20495;-76
2023/07/16 03:13:26;;;;;;;25.95;9.88;;;;;;;14.95;100.00;100161.75;4973006;28;20037;-75
2023/07/16 03:15:51;;;;;;;22.27;9.75;;;;;;;14.96;100.00;100158.63;4956737;28;20027;-76
2023/07/16 03:18:20;;;;;;;26.00;10.10;;;;;;;14.89;100.00;100161.09;4942927;29;20399;-76
2023/07/16 03:20:45;;;;;;;25.98;9.93;;;;;;;14.88;100.00;100167.84;4933220;28;20118;-76
2023/07/16 03:23:11;;;;;;;24.25;10.57;;;;;;;14.87;100.00;100163.38;4948733;29;20090;-76
2023/07/16 03:25:36;;;;;;;22.45;10.13;;;;;;;14.85;100.00;100174.09;4955352;28;20037;-75
2023/07/16 03:28:02;;;;;;;29.60;10.48;;;;;;;14.86;100.00;100158.97;4927059;29;20024;-75
2023/07/16 03:30:27;;;;;;;24.50;10.90;;;;;;;14.84;100.00;100166.84;4940780;28;20110;-75
2023/07/16 03:32:53;;;;;;;27.52;10.20;;;;;;;14.81;100.00;100161.94;4921451;29;20031;-76
2023/07/16 03:35:18;;;;;;;22.42;9.50;;;;;;;14.80;100.00;100165.88;4939390;28;20035;-76
2023/07/16 03:37:44;;;;;;;27.52;9.75;;;;;;;14.80;100.00;100177.06;4935620;28;20038;-76
2023/07/16 03:40:16;;;;;;;28.90;11.05;;;;;;;14.80;100.00;100174.28;4945008;28;20039;-76
2023/07/16 03:42:42;;;;;;;25.52;10.05;;;;;;;14.80;100.00;100167.88;4927030;29;20035;-75
2023/07/16 03:45:09;;;;;;;23.25;9.57;;;;;;;14.79;100.00;100166.19;4926349;29;20041;-76
2023/07/16 03:47:34;;;;;;;25.67;9.90;;;;;;;14.76;100.00;100176.06;4939989;28;20018;-76
2023/07/16 03:50:00;;;;;;;21.50;9.13;;;;;;;14.76;100.00;100178.88;4947624;28;20442;-75
2023/07/16 03:52:26;;;;;;;22.85;9.40;;;;;;;14.77;100.00;100180.53;4926701;29;20038;-76
2023/07/16 03:54:52;;;;;;;21.23;10.45;;;;;;;14.71;100.00;100181.84;4942246;28;20042;-76
2023/07/16 03:57:17;;;;;;;23.80;10.48;;;;;;;14.70;100.00;100182.97;4951311;28;20142;-76
2023/07/16 03:59:43;;;;;;;20.20;9.60;;;;;;;14.69;100.00;100176.56;4914696;28;20039;-75
2023/07/16 04:02:09;;;;;;;24.70;10.45;;;;;;;14.64;100.00;100179.53;4926768;29;20038;-76
2023/07/16 04:04:34;;;;;;;24.90;10.93;;;;;;;14.61;100.00;100180.19;4926387;28;20051;-76
2023/07/16 04:07:00;;;;;;;24.20;10.85;;;;;;;14.64;100.00;100187.09;4959342;28;20023;-76
2023/07/16 04:09:25;;;;;;;25.73;9.93;;;;;;;14.62;100.00;100187.41;4926231;28;20495;-75
2023/07/16 04:11:51;;;;;;;22.33;9.55;;;;;;;14.60;100.00;100188.91;4927350;28;20169;-76
2023/07/16 04:14:16;;;;;;;21.75;10.07;;;;;;;14.62;100.00;100186.59;4932551;28;20115;-76
2023/07/16 04:16:42;;;;;;;25.17;10.90;;;;;;;14.59;100.00;100195.66;4936623;28;20039;-76
2023/07/16 04:19:09;;;;;;;24.20;10.25;;;;;;;14.57;100.00;100195.16;4943939;28;20034;-76
2023/07/16 04:21:34;;;;;;;26.15;10.60;;;;;;;14.56;100.00;100190.72;4926401;29;20178;-76
2023/07/16 04:24:00;;;;;;;24.48;11.10;;;;;;;14.52;100.00;100194.16;4928708;28;20058;-76
2023/07/16 04:26:25;;;;;;;25.65;10.75;;;;;;;14.52;100.00;100194.16;4936189;29;20031;-76
2023/07/16 04:28:51;;;;;;;23.23;11.45;;;;;;;14.51;100.00;100200.88;4941793;28;20031;-76
2023/07/16 04:31:16;;;;;;;23.60;10.52;;;;;;;14.52;100.00;100210.13;4926238;29;20039;-76
2023/07/16 04:33:42;;;;;;;21.25;9.70;;;;;;;14.49;100.00;100211.56;4929499;28;20387;-76
2023/07/16 04:36:07;;;;;;;21.33;10.45;;;;;;;14.50;100.00;100217.97;4916402;29;20039;-76
2023/07/16 04:38:33;;;;;;;23.60;10.07;;;;;;;14.48;100.00;100215.50;4954721;28;20043;-76
2023/07/16 04:40:58;;;;;;;22.75;10.25;;;;;;;14.46;100.00;100223.41;4941777;29;20035;-76
2023/07/16 04:43:24;;;;;;;25.02;10.90;;;;;;;14.47;100.00;100224.22;4925901;28;20027;-76
2023/07/16 04:45:49;;;;;;;23.88;10.27;;;;;;;14.43;100.00;100229.66;4926138;29;20046;-76
2023/07/16 04:48:15;;;;;;;26.08;10.88;;;;;;;14.42;100.00;100238.34;4929270;28;20030;-76
2023/07/16 04:50:40;;;;;;;22.73;10.15;;;;;;;14.45;100.00;100241.28;4925997;29;20031;-76
2023/07/16 04:53:06;;;;;;;32.25;10.88;;;;;;;14.45;100.00;100241.28;4942974;28;20050;-76
2023/07/16 04:55:38;;;;;;;26.85;10.00;;;;;;;14.48;100.00;100235.03;4911104;28;20034;-76
2023/07/16 04:58:04;;;;;;;24.43;10.07;;;;;;;14.49;100.00;100239.50;4932166;28;20039;-76
2023/07/16 05:00:29;;;;;;;30.17;10.88;;;;;;;14.48;100.00;100237.84;4926290;29;20043;-76
2023/07/16 05:02:54;;;;;;;28.05;11.73;;;;;;;14.50;100.00;100243.94;4944288;28;20043;-76
2023/07/16 05:05:20;;;;;;;27.48;10.82;;;;;;;14.53;100.00;100240.50;4951992;29;20051;-75
2023/07/16 05:07:45;;;;;;;23.05;10.43;;;;;;;14.57;100.00;100243.50;4924174;28;20023;-76
2023/07/16 05:10:11;;;;;;;23.83;9.98;;;;;;;14.60;100.00;100244.78;4935903;29;20031;-76
2023/07/16 05:12:37;;;;;;;23.48;10.98;;;;;;;14.61;100.00;100250.06;4941345;28;20070;-76
2023/07/16 05:15:02;;;;;;;25.35;11.07;;;;;;;14.61;100.00;100252.03;4925910;29;20046;-76
2023/07/16 05:17:28;;;;;;;22.58;10.25;;;;;;;14.65;100.00;100250.22;4927897;28;20384;-76
2023/07/16 05:19:53;;;;;;;25.77;10.77;;;;;;;14.65;100.00;100255.81;4951920;29;20032;-76
2023/07/16 05:22:18;;;;;;;28.55;11.43;;;;;;;14.67;100.00;100257.13;4925854;28;20027;-76
2023/07/16 05:24:44;;;;;;;21.25;10.48;;;;;;;14.69;100.00;100259.59;4931424;29;20384;-76
2023/07/16 05:27:10;;;;;;;25.25;10.48;;;;;;;14.77;100.00;100261.59;4954001;28;20031;-76
2023/07/16 05:29:35;;;;;;;27.05;10.68;;;;;;;14.78;100.00;100257.63;4941528;29;20094;-76
2023/07/16 05:32:01;;;;;;;28.92;11.40;;;;;;;14.80;100.00;100266.53;4947931;28;20106;-75
2023/07/16 05:34:26;;;;;;;22.30;10.15;;;;;;;14.83;100.00;100268.66;4929160;29;20027;-76
2023/07/16 05:36:54;;;;;;;24.80;10.85;;;;;;;14.88;100.00;100262.09;4944661;28;20039;-76
2023/07/16 05:39:19;;;;;;;26.65;11.52;;;;;;;14.95;100.00;100265.19;4929455;29;20039;-76
2023/07/16 05:41:45;;;;;;;28.00;11.07;;;;;;;14.97;100.00;100266.50;4928609;28;20035;-76
2023/07/16 05:44:10;;;;;;;25.45;11.50;;;;;;;15.01;100.00;100266.66;4928985;29;20217;-76
2023/07/16 05:46:36;;;;;;;23.42;10.50;;;;;;;15.04;100.00;100271.59;4927874;28;20446;-76
2023/07/16 05:49:01;;;;;;;24.90;10.82;;;;;;;15.10;100.00;100269.47;4938111;28;20035;-76
2023/07/16 05:51:27;;;;;;;31.25;12.25;;;;;;;15.14;100.00;100276.06;4902724;28;20027;-76
2023/07/16 05:53:52;;;;;;;22.90;10.95;;;;;;;15.22;100.00;100272.41;4944550;29;20043;-75
2023/07/16 05:56:18;;;;;;;26.80;11.70;;;;;;;15.27;100.00;100274.25;4933737;28;20110;-75
2023/07/16 05:58:44;;;;;;;23.95;10.77;;;;;;;15.31;100.00;100286.41;4928398;29;20043;-76
2023/07/16 06:01:09;;;;;;;24.05;11.30;;;;;;;15.37;100.00;100285.06;4974384;28;20046;-76
2023/07/16 06:03:34;;;;;;;28.63;11.10;;;;;;;15.42;100.00;100284.91;4912785;29;20052;-76
2023/07/16 06:06:00;;;;;;;22.83;11.15;;;;;;;15.50;100.00;100280.44;4909176;29;20047;-76
2023/07/16 06:08:26;;;;;;;26.80;11.68;;;;;;;15.56;100.00;100285.53;4925073;29;20043;-76
2023/07/16 06:10:51;;;;;;;28.95;11.32;;;;;;;15.61;100.00;100287.31;4942375;28;20035;-76
2023/07/16 06:13:17;;;;;;;32.13;11.80;;;;;;;15.65;100.00;100291.91;4925249;29;20082;-76
2023/07/16 06:15:43;;;;;;;25.17;11.45;;;;;;;15.73;100.00;100287.47;4926854;29;20126;-76
2023/07/16 06:18:09;;;;;;;25.98;12.10;;;;;;;15.81;100.00;100297.81;4919832;29;20024;-76
2023/07/16 06:20:34;;;;;;;25.50;11.63;;;;;;;15.89;100.00;100295.34;4935591;29;20040;-76
2023/07/16 06:23:00;;;;;;;29.20;12.80;;;;;;;15.95;100.00;100299.59;4952914;29;20374;-76
2023/07/16 06:25:25;;;;;;;25.23;11.73;;;;;;;16.02;100.00;100311.13;4922066;29;20397;-76
2023/07/16 06:27:51;;;;;;;27.58;11.93;;;;;;;16.09;100.00;100303.00;4935589;29;20031;-76
2023/07/16 06:30:16;;;;;;;28.55;12.48;;;;;;;16.16;100.00;100297.72;4926744;29;20035;-76
2023/07/16 06:32:42;;;;;;;29.40;13.15;;;;;;;16.23;100.00;100314.78;4951125;29;20547;-76
2023/07/16 06:35:08;;;;;;;29.35;13.38;;;;;;;16.33;100.00;100307.19;4938743;29;20031;-76
2023/07/16 06:37:33;;;;;;;30.33;12.40;;;;;;;16.41;100.00;100307.13;4950891;29;20039;-76
2023/07/16 06:39:59;;;;;;;32.70;13.30;;;;;;;16.51;100.00;100305.91;4938912;29;20027;-76
2023/07/16 06:42:24;;;;;;;30.70;12.60;;;;;;;16.62;100.00;100323.97;4934437;29;20392;-75
2023/07/16 06:44:50;;;;;;;29.17;12.32;;;;;;;16.78;100.00;100315.00;4924510;29;20054;-76
2023/07/16 06:47:15;;;;;;;25.60;12.27;;;;;;;16.89;100.00;100311.47;4944746;28;20035;-76
2023/07/16 06:49:41;;;;;;;27.40;12.35;;;;;;;17.01;100.00;100319.13;4934503;29;20027;-76
2023/07/16 06:52:06;;;;;;;28.33;11.65;;;;;;;17.12;100.00;100319.53;4940563;29;20040;-75
2023/07/16 06:54:32;;;;;;;30.77;13.00;;;;;;;17.23;100.00;100326.38;4940525;29;20201;-76
2023/07/16 06:56:58;;;;;;;36.28;12.85;;;;;;;17.34;100.00;100327.59;4931503;29;20453;-76
2023/07/16 06:59:23;;;;;;;29.10;12.13;;;;;;;17.43;100.00;100335.94;4917404;29;20036;-76
2023/07/16 07:01:48;;;;;;;38.42;13.32;;;;;;;17.58;100.00;100329.69;4924264;29;20039;-76
2023/07/16 07:04:14;;;;;;;34.95;12.63;;;;;;;17.69;100.00;100332.88;4935559;29;20032;-76
2023/07/16 07:06:39;;;;;;;28.77;12.23;;;;;;;17.82;100.00;100342.16;4929791;28;20048;-76
2023/07/16 07:09:05;;;;;;;29.27;12.20;;;;;;;17.96;100.00;100337.06;4950058;29;20027;-76
2023/07/16 07:11:31;;;;;;;27.60;11.55;;;;;;;18.13;100.00;100343.63;4955070;28;20674;-76
2023/07/16 07:13:57;;;;;;;25.88;11.93;;;;;;;18.27;100.00;100353.38;4949950;29;20333;-76
2023/07/16 07:16:23;;;;;;;25.13;12.52;;;;;;;18.42;100.00;100351.88;4927110;29;20130;-75
2023/07/16 07:18:49;;;;;;;31.70;12.02;;;;;;;18.59;100.00;100348.00;4920456;29;20035;-76
2023/07/16 07:21:14;;;;;;;23.80;11.38;;;;;;;18.72;100.00;100358.09;4926898;29;20058;-76
2023/07/16 07:23:40;;;;;;;28.02;12.02;;;;;;;18.88;100.00;100355.38;4939761;28;20510;-76
2023/07/16 07:26:05;;;;;;;22.80;11.25;;;;;;;18.98;100.00;100354.09;4923763;29;20031;-76
2023/07/16 07:28:31;;;;;;;25.00;11.60;;;;;;;19.06;100.00;100355.13;4936552;29;20490;-76
2023/07/16 07:30:57;;;;;;;23.40;10.70;;;;;;;19.15;100.00;100361.44;4955615;29;20054;-76
2023/07/16 07:33:22;;;;;;;25.63;10.95;;;;;;;19.19;100.00;100362.34;4930708;29;20027;-75
2023/07/16 07:35:48;;;;;;;18.73;9.48;;;;;;;19.27;100.00;100363.38;4945814;29;20035;-76
2023/07/16 07:38:13;;;;;;;23.15;9.90;;;;;;;19.33;100.00;100361.97;4950685;29;20027;-76
2023/07/16 07:40:38;;;;;;;23.20;10.32;;;;;;;19.36;100.00;100359.28;4921291;29;20035;-76
2023/07/16 07:43:04;;;;;;;22.35;9.68;;;;;;;19.41;100.00;100367.44;4926693;29;20031;-76
2023/07/16 07:45:29;;;;;;;20.88;8.93;;;;;;;19.44;100.00;100365.91;4942252;29;20373;-76
2023/07/16 07:47:55;;;;;;;22.30;9.18;;;;;;;19.51;100.00;100376.59;4936064;28;20024;-76
2023/07/16 07:50:20;;;;;;;18.77;9.07;;;;;;;19.56;100.00;100377.16;4946967;28;20104;-76
2023/07/16 07:52:46;;;;;;;22.75;8.80;;;;;;;19.57;100.00;100369.50;4925857;29;20043;-76
2023/07/16 07:55:11;;;;;;;26.58;8.85;;;;;;;19.64;100.00;100386.63;4910610;28;20031;-76
2023/07/16 07:57:37;;;;;;;21.77;8.65;;;;;;;19.70;100.00;100379.59;4928249;29;20463;-76
2023/07/16 08:00:03;;;;;;;20.33;8.45;;;;;;;19.77;100.00;100376.94;4940730;29;20039;-76
2023/07/16 08:02:29;;;;;;;16.52;7.65;;;;;;;19.87;100.00;100372.81;4958387;29;20031;-76
2023/07/16 08:04:55;;;;;;;20.33;8.38;;;;;;;19.98;100.00;100384.38;4941918;29;20055;-76
2023/07/16 08:07:21;;;;;;;18.00;7.68;;;;;;;20.09;100.00;100374.22;4926274;29;20026;-76
2023/07/16 08:09:46;;;;;;;16.48;7.55;;;;;;;20.25;100.00;100369.41;4926128;29;20514;-76
2023/07/16 08:12:12;;;;;;;18.50;7.03;;;;;;;20.43;100.00;100383.16;4964037;28;20034;-76
2023/07/16 08:14:38;;;;;;;18.25;7.70;;;;;;;20.63;100.00;100382.06;4928082;28;20101;-76
2023/07/16 08:17:03;;;;;;;15.73;7.65;;;;;;;20.88;100.00;100379.03;4953884;28;20030;-76
2023/07/16 08:19:29;;;;;;;15.68;7.35;;;;;;;21.09;100.00;100373.88;4926154;29;20066;-76
2023/07/16 08:21:54;;;;;;;16.63;6.80;;;;;;;21.33;100.00;100380.44;4917896;29;20042;-76
2023/07/16 08:24:20;;;;;;;17.38;6.10;;;;;;;21.55;100.00;100370.44;4960086;28;20030;-76
2023/07/16 08:26:45;;;;;;;11.25;6.35;;;;;;;21.76;100.00;100378.56;4945035;28;20027;-77
2023/07/16 08:29:11;;;;;;;13.52;5.28;;;;;;;22.03;100.00;100383.09;4944860;28;20041;-76
2023/07/16 08:31:36;;;;;;;13.77;5.57;;;;;;;22.21;100.00;100388.34;4929461;28;20027;-77
2023/07/16 08:34:02;;;;;;;13.13;5.03;;;;;;;22.40;100.00;100382.63;4944531;29;20039;-76
2023/07/16 08:36:27;;;;;;;12.73;5.18;;;;;;;22.59;100.00;100383.72;4903446;29;20030;-77
2023/07/16 08:38:53;;;;;;;11.60;5.55;;;;;;;22.80;100.00;100384.06;4937412;29;20059;-76
2023/07/16 08:41:18;;;;;;;11.32;4.45;;;;;;;22.99;100.00;100379.53;4911230;28;20023;-76
2023/07/16 08:43:47;;;;;;;11.10;4.60;;;;;;;23.16;100.00;100382.63;4927208;28;20031;-77
2023/07/16 08:46:14;;;;;;;14.07;4.90;;;;;;;23.32;100.00;100381.63;4932940;28;20039;-77
2023/07/16 08:48:40;;;;;;;10.20;4.70;;;;;;;23.49;100.00;100388.75;4944257;29;20027;-76
2023/07/16 08:51:07;;;;;;;10.57;4.38;;;;;;;23.58;100.00;100377.91;4926287;29;20144;-77
2023/07/16 08:53:32;;;;;;;11.13;5.13;;;;;;;23.64;100.00;100376.38;4941920;29;20133;-77
2023/07/16 08:55:58;;;;;;;11.07;4.97;;;;;;;23.79;100.00;100383.88;4926988;28;20027;-77
2023/07/16 08:58:23;;;;;;;13.02;4.13;;;;;;;23.86;100.00;100378.28;4941946;29;20039;-77
2023/07/16 09:00:49;;;;;;;9.00;4.40;;;;;;;23.95;99.08;100375.13;4952341;28;20495;-77
2023/07/16 09:03:17;;;;;;;9.43;4.25;;;;;;;24.02;98.94;100368.75;4927493;29;20398;-77
2023/07/16 09:05:44;;;;;;;10.55;4.50;;;;;;;24.11;98.18;100376.94;4921807;29;20381;-77
2023/07/16 09:08:09;;;;;;;12.13;4.65;;;;;;;24.15;96.00;100366.41;4958022;29;20440;-77
2023/07/16 09:10:35;;;;;;;14.45;4.72;;;;;;;24.18;96.48;100371.31;4913428;29;20031;-76
2023/07/16 09:13:00;;;;;;;10.05;4.65;;;;;;;24.24;97.40;100378.28;4928842;29;20031;-76
2023/07/16 09:15:26;;;;;;;11.38;4.72;;;;;;;24.25;95.40;100372.19;4941522;28;20038;-76
2023/07/16 09:17:53;;;;;;;10.32;4.18;;;;;;;24.29;93.91;100375.91;4945242;28;20038;-77
2023/07/16 09:20:18;;;;;;;11.90;4.88;;;;;;;24.27;94.69;100386.81;4945164;29;20039;-77
2023/07/16 09:22:44;;;;;;;13.80;5.40;;;;;;;24.19;99.72;100389.97;4929292;29;20023;-78
2023/07/16 09:25:10;;;;;;;14.60;5.30;;;;;;;24.06;100.00;100384.56;4957379;28;20027;-78
2023/07/16 09:27:36;;;;;;;20.08;5.57;;;;;;;23.94;100.00;100379.19;4928868;29;20495;-78
2023/07/16 09:30:05;;;;;;;14.57;5.65;;;;;;;23.75;100.00;100377.34;4929097;29;20054;-75
2023/07/16 09:32:40;;;;;;;15.13;5.97;;;;;;;23.56;100.00;100383.97;4935761;29;20031;-75
2023/07/16 09:35:13;;;;;;;16.67;6.05;;;;;;;23.39;100.00;100388.19;4947310;28;20030;-75
2023/07/16 09:37:38;;;;;;;11.20;5.50;;;;;;;23.23;100.00;100383.91;4960207;28;20057;-75
2023/07/16 09:40:10;;;;;;;12.55;5.68;;;;;;;23.07;100.00;100381.28;4949341;28;20031;-75
2023/07/16 09:42:37;;;;;;;14.88;6.13;;;;;;;22.97;100.00;100389.22;4969528;28;20090;-76
2023/07/16 09:45:03;;;;;;;13.60;6.18;;;;;;;22.89;100.00;100380.97;4928319;29;20476;-76
2023/07/16 09:47:28;;;;;;;13.18;6.07;;;;;;;22.81;100.00;100368.72;4964396;28;20029;-76
2023/07/16 09:49:53;;;;;;;15.82;5.70;;;;;;;22.77;100.00;100373.50;4935096;28;20039;-76
2023/07/16 09:52:20;;;;;;;13.90;5.75;;;;;;;22.75;100.00;100373.06;4955743;29;20028;-77
2023/07/16 09:54:45;;;;;;;13.27;5.72;;;;;;;22.77;100.00;100373.50;4925950;28;20060;-77
2023/07/16 09:57:11;;;;;;;14.13;6.47;;;;;;;22.79;100.00;100368.28;4930992;29;20049;-77
2023/07/16 09:59:37;;;;;;;15.52;6.32;;;;;;;22.87;100.00;100375.72;4934857;28;20035;-76
2023/07/16 10:02:03;;;;;;;15.75;6.22;;;;;;;22.94;100.00;100370.13;4949493;29;20090;-77
2023/07/16 10:04:38;;;;;;;16.88;6.70;;;;;;;23.04;100.00;100380.03;4930472;28;20059;-76
2023/07/16 10:07:05;;;;;;;19.27;6.28;;;;;;;23.14;100.00;100370.03;4922389;29;20024;-78
2023/07/16 10:09:50;;;;;;;15.30;6.20;;;;;;;23.22;100.00;100370.97;4941351;29;20031;-77
2023/07/16 10:12:18;;;;;;;13.05;5.75;;;;;;;23.27;100.00;100379.94;4942681;28;20042;-77
2023/07/16 10:14:45;;;;;;;15.27;5.95;;;;;;;23.28;100.00;100387.25;4918794;28;20030;-77
2023/07/16 10:17:17;;;;;;;16.75;6.18;;;;;;;23.37;100.00;100373.63;4917807;28;20038;-77
2023/07/16 10:20:08;;;;;;;14.70;5.68;;;;;;;23.46;100.00;100380.97;4943966;29;20031;-77
2023/07/16 10:22:45;;;;;;;12.38;5.40;;;;;;;23.62;100.00;100381.59;4945492;28;20031;-77
2023/07/16 10:25:22;;;;;;;14.60;5.43;;;;;;;23.79;100.00;100380.22;4943885;29;20065;-77
2023/07/16 10:27:49;;;;;;;16.05;5.53;;;;;;;23.94;100.00;100372.69;4932533;29;20094;-77
2023/07/16 10:30:14;;;;;;;12.88;5.57;;;;;;;24.12;100.00;100368.00;4918467;28;20043;-77
2023/07/16 10:32:40;;;;;;;13.35;5.53;;;;;;;24.33;100.00;100373.09;4932921;29;20038;-77
2023/07/16 10:35:06;;;;;;;13.05;5.35;;;;;;;24.53;100.00;100370.88;4973850;28;20035;-77
2023/07/16 10:37:31;;;;;;;12.55;5.45;;;;;;;24.74;100.00;100370.22;4935893;28;20041;-77
2023/07/16 10:39:58;;;;;;;12.18;5.72;;;;;;;24.93;100.00;100380.50;4955507;28;20543;-77
2023/07/16 10:42:24;;;;;;;13.55;5.22;;;;;;;25.06;97.19;100378.97;4943709;29;20094;-77
2023/07/16 10:45:05;;;;;;;10.95;5.43;;;;;;;25.26;97.83;100373.03;4925393;28;20095;-77
2023/07/16 10:47:35;;;;;;;10.82;4.63;;;;;;;25.45;95.45;100378.41;4952836;28;20026;-77
2023/07/16 10:50:03;;;;;;;9.90;5.15;;;;;;;25.54;91.04;100378.03;4934001;28;20369;-77
2023/07/16 10:52:28;;;;;;;13.40;5.10;;;;;;;25.63;89.81;100376.47;4943854;29;20098;-76
2023/07/16 10:54:58;;;;;;;11.38;5.28;;;;;;;25.67;89.82;100389.88;4930162;28;20135;-73
2023/07/16 10:57:27;;;;;;;15.27;5.63;;;;;;;25.62;94.43;100400.41;4951934;29;20118;-78
2023/07/16 10:59:53;;;;;;;17.58;6.25;;;;;;;25.45;98.75;100403.97;4955459;28;20039;-79
2023/07/16 11:02:19;;;;;;;13.95;5.88;;;;;;;25.23;100.00;100397.34;4932548;28;20038;-79